createdAt,value
2023-05-10T00:00:14.624Z,16.90
2023-05-10T00:02:42.725Z,16.94
2023-05-10T00:05:10.372Z,16.85
2023-05-10T00:07:37.696Z,16.79
2023-05-10T00:10:05.821Z,16.82
2023-05-10T00:12:33.284Z,16.85
2023-05-10T00:15:00.691Z,16.79
2023-05-10T00:17:28.558Z,16.89
2023-05-10T00:19:55.963Z,16.87
2023-05-10T00:22:23.413Z,16.86
2023-05-10T00:24:51.067Z,16.72
2023-05-10T00:27:18.475Z,16.73
2023-05-10T00:29:45.924Z,16.25
2023-05-10T00:32:14.928Z,16.40
2023-05-10T00:34:42.526Z,16.26
2023-05-10T00:37:09.982Z,16.20
2023-05-10T00:39:37.657Z,16.07
2023-05-10T00:42:05.536Z,16.17
2023-05-10T00:44:33.228Z,16.32
2023-05-10T00:47:00.955Z,16.33
2023-05-10T00:49:28.615Z,16.44
2023-05-10T00:51:56.025Z,16.43
2023-05-10T00:54:23.690Z,16.35
2023-05-10T00:56:52.717Z,16.18
2023-05-10T00:59:20.360Z,16.35
2023-05-10T01:01:48.448Z,16.31
2023-05-10T01:04:16.405Z,16.35
2023-05-10T01:06:44.033Z,16.17
2023-05-10T01:09:12.751Z,16.14
2023-05-10T01:11:41.106Z,16.30
2023-05-10T01:14:08.806Z,16.27
2023-05-10T01:16:40.285Z,16.28
2023-05-10T01:19:32.183Z,16.43
2023-05-10T01:22:07.634Z,16.53
2023-05-10T01:24:40.953Z,16.50
2023-05-10T01:27:14.601Z,16.49
2023-05-10T01:30:01.406Z,16.41
2023-05-10T01:32:40.289Z,16.44
2023-05-10T01:35:12.031Z,16.45
2023-05-10T01:37:58.091Z,16.42
2023-05-10T01:40:31.576Z,16.46
2023-05-10T01:43:09.572Z,16.51
2023-05-10T01:46:06.177Z,16.50
2023-05-10T01:48:34.055Z,16.59
2023-05-10T01:51:01.775Z,16.40
2023-05-10T01:53:29.345Z,16.47
2023-05-10T01:55:57.557Z,16.48
2023-05-10T01:58:29.485Z,16.48
2023-05-10T02:00:59.307Z,16.41
2023-05-10T02:03:28.317Z,16.37
2023-05-10T02:05:57.079Z,15.81
2023-05-10T02:08:25.145Z,16.36
2023-05-10T02:10:55.595Z,16.28
2023-05-10T02:13:24.751Z,16.40
2023-05-10T02:15:52.462Z,16.44
2023-05-10T02:18:20.446Z,16.45
2023-05-10T02:20:48.318Z,16.40
2023-05-10T02:23:18.007Z,16.31
2023-05-10T02:25:46.016Z,16.23
2023-05-10T02:28:15.507Z,16.08
2023-05-10T02:30:43.587Z,16.30
2023-05-10T02:33:12.320Z,16.47
2023-05-10T02:35:40.024Z,16.45
2023-05-10T02:38:09.836Z,16.42
2023-05-10T02:40:37.691Z,15.89
2023-05-10T02:43:05.290Z,16.31
2023-05-10T02:45:33.755Z,16.32
2023-05-10T02:48:01.610Z,16.49
2023-05-10T02:50:29.736Z,16.51
2023-05-10T02:53:00.953Z,16.34
2023-05-10T02:55:38.111Z,16.11
2023-05-10T02:58:05.884Z,16.16
2023-05-10T03:00:33.890Z,16.42
2023-05-10T03:03:01.435Z,16.33
2023-05-10T03:05:29.258Z,16.45
2023-05-10T03:07:57.945Z,16.44
2023-05-10T03:10:30.895Z,16.28
2023-05-10T03:13:01.504Z,16.02
2023-05-10T03:15:47.657Z,15.99
2023-05-10T03:18:43.290Z,15.69
2023-05-10T03:21:13.434Z,15.59
2023-05-10T03:23:47.529Z,15.73
2023-05-10T03:26:21.396Z,15.57
2023-05-10T03:28:49.803Z,15.24
2023-05-10T03:31:18.411Z,15.48
2023-05-10T03:33:53.271Z,15.67
2023-05-10T03:36:22.014Z,15.39
2023-05-10T03:38:49.441Z,15.40
2023-05-10T03:41:16.874Z,15.26
2023-05-10T03:43:44.610Z,15.75
2023-05-10T03:46:12.068Z,15.88
2023-05-10T03:48:39.546Z,15.84
2023-05-10T03:51:07.663Z,15.79
2023-05-10T03:53:35.038Z,15.78
2023-05-10T03:56:02.496Z,15.88
2023-05-10T03:58:30.173Z,15.71
2023-05-10T04:00:57.618Z,15.59
2023-05-10T04:03:26.914Z,15.59
2023-05-10T04:06:04.020Z,15.74
2023-05-10T04:08:32.498Z,15.74
2023-05-10T04:11:09.930Z,15.65
2023-05-10T04:13:38.272Z,15.81
2023-05-10T04:16:06.248Z,15.68
2023-05-10T04:18:33.807Z,15.68
2023-05-10T04:21:01.640Z,15.75
2023-05-10T04:23:29.085Z,15.94
2023-05-10T04:26:01.582Z,15.76
2023-05-10T04:28:29.421Z,16.10
2023-05-10T04:31:10.536Z,15.87
2023-05-10T04:33:38.478Z,15.95
2023-05-10T04:36:06.316Z,15.79
2023-05-10T04:38:33.702Z,15.67
2023-05-10T04:41:09.301Z,15.77
2023-05-10T04:43:37.161Z,15.85
2023-05-10T04:46:05.310Z,16.02
2023-05-10T04:48:32.834Z,16.44
2023-05-10T04:51:00.646Z,16.17
2023-05-10T04:53:28.356Z,16.23
2023-05-10T04:55:55.752Z,15.96
2023-05-10T04:58:23.133Z,16.32
2023-05-10T05:00:50.974Z,15.82
2023-05-10T05:03:18.440Z,15.63
2023-05-10T05:05:46.029Z,16.08
2023-05-10T05:08:14.251Z,15.91
2023-05-10T05:10:41.641Z,16.37
2023-05-10T05:13:09.045Z,16.48
2023-05-10T05:15:36.735Z,16.73
2023-05-10T05:18:04.268Z,16.90
2023-05-10T05:20:34.313Z,16.50
2023-05-10T05:23:02.675Z,16.63
2023-05-10T05:25:30.141Z,16.93
2023-05-10T05:27:57.583Z,16.96
2023-05-10T05:30:25.302Z,16.83
2023-05-10T05:32:53.461Z,16.21
2023-05-10T05:35:20.918Z,16.57
2023-05-10T05:37:48.651Z,16.30
2023-05-10T05:40:16.125Z,15.89
2023-05-10T05:42:43.565Z,16.33
2023-05-10T05:45:14.025Z,15.88
2023-05-10T05:47:41.861Z,15.28
2023-05-10T05:50:09.835Z,15.48
2023-05-10T05:52:37.544Z,15.21
2023-05-10T05:55:05.408Z,15.37
2023-05-10T05:57:32.774Z,14.39
2023-05-10T06:00:00.588Z,15.39
2023-05-10T06:02:28.116Z,16.17
2023-05-10T06:04:55.978Z,15.24
2023-05-10T06:07:23.405Z,15.79
2023-05-10T06:09:51.033Z,16.60
2023-05-10T06:12:18.717Z,16.38
2023-05-10T06:14:46.072Z,17.23
2023-05-10T06:17:13.561Z,17.33
2023-05-10T06:19:41.199Z,17.24
2023-05-10T06:22:08.871Z,17.03
2023-05-10T06:24:36.299Z,16.84
2023-05-10T06:27:05.101Z,17.24
2023-05-10T06:29:32.487Z,17.10
2023-05-10T06:32:00.000Z,17.21
2023-05-10T06:34:27.661Z,17.42
2023-05-10T06:36:55.071Z,17.16
2023-05-10T06:39:22.455Z,17.13
2023-05-10T06:41:50.268Z,16.69
2023-05-10T06:44:17.623Z,16.72
2023-05-10T06:46:45.065Z,16.91
2023-05-10T06:49:12.945Z,16.50
2023-05-10T06:51:41.162Z,17.15
2023-05-10T06:54:08.532Z,17.29
2023-05-10T06:56:36.386Z,17.24
2023-05-10T06:59:04.055Z,17.18
2023-05-10T07:01:31.529Z,17.21
2023-05-10T07:03:59.192Z,17.44
2023-05-10T07:06:33.424Z,17.16
2023-05-10T07:09:02.080Z,16.83
2023-05-10T07:11:29.722Z,16.80
2023-05-10T07:13:57.127Z,17.43
2023-05-10T07:16:24.788Z,17.45
2023-05-10T07:18:52.243Z,17.08
2023-05-10T07:21:19.654Z,16.66
2023-05-10T07:23:47.347Z,16.77
2023-05-10T07:26:15.889Z,16.96
2023-05-10T07:28:43.335Z,17.36
2023-05-10T07:31:11.011Z,17.68
2023-05-10T07:33:38.537Z,17.67
2023-05-10T07:36:05.977Z,17.43
2023-05-10T07:38:33.797Z,17.33
2023-05-10T07:41:01.221Z,17.71
2023-05-10T07:43:28.836Z,17.05
2023-05-10T07:45:58.583Z,17.32
2023-05-10T07:48:26.107Z,17.18
2023-05-10T07:50:53.479Z,17.47
2023-05-10T07:53:21.765Z,17.75
2023-05-10T07:55:52.962Z,17.51
2023-05-10T07:58:20.645Z,17.66
2023-05-10T08:00:48.190Z,17.69
2023-05-10T08:03:16.268Z,17.62
2023-05-10T08:05:43.793Z,17.87
2023-05-10T08:08:11.236Z,17.51
2023-05-10T08:10:38.941Z,17.22
2023-05-10T08:13:07.097Z,17.39
2023-05-10T08:15:34.609Z,17.40
2023-05-10T08:18:02.368Z,17.69
2023-05-10T08:20:29.861Z,17.65
2023-05-10T08:22:57.326Z,17.72
2023-05-10T08:25:25.160Z,17.51
2023-05-10T08:27:52.513Z,17.82
2023-05-10T08:30:19.990Z,18.04
2023-05-10T08:32:47.798Z,17.78
2023-05-10T08:35:16.713Z,18.14
2023-05-10T08:37:44.289Z,18.10
2023-05-10T08:40:12.906Z,18.35
2023-05-10T08:42:41.695Z,18.12
2023-05-10T08:45:09.873Z,18.27
2023-05-10T08:47:39.151Z,18.62
2023-05-10T08:50:08.053Z,18.83
2023-05-10T08:52:37.757Z,18.45
2023-05-10T08:55:05.715Z,18.39
2023-05-10T08:57:33.068Z,18.62
2023-05-10T09:00:01.809Z,18.74
2023-05-10T09:02:30.197Z,18.33
2023-05-10T09:04:57.831Z,18.90
2023-05-10T09:07:25.927Z,18.79
2023-05-10T09:09:54.405Z,18.98
2023-05-10T09:12:21.833Z,19.59
2023-05-10T09:14:49.801Z,19.25
2023-05-10T09:17:17.696Z,19.51
2023-05-10T09:19:46.356Z,19.57
2023-05-10T09:22:13.857Z,19.50
2023-05-10T09:24:46.152Z,19.83
2023-05-10T09:27:13.628Z,19.47
2023-05-10T09:29:43.098Z,19.74
2023-05-10T09:32:10.497Z,19.72
2023-05-10T09:34:40.965Z,19.57
2023-05-10T09:37:09.253Z,19.85
2023-05-10T09:39:37.980Z,20.04
2023-05-10T09:42:07.368Z,20.37
2023-05-10T09:44:35.153Z,20.10
2023-05-10T09:47:03.161Z,19.13
2023-05-10T09:49:31.138Z,19.50
2023-05-10T09:52:06.277Z,19.64
2023-05-10T09:54:34.919Z,19.60
2023-05-10T09:57:03.004Z,19.67
2023-05-10T09:59:30.593Z,20.22
2023-05-10T10:02:01.326Z,20.05
2023-05-10T10:04:29.622Z,20.13
2023-05-10T10:07:04.605Z,20.60
2023-05-10T10:09:33.290Z,20.51
2023-05-10T10:12:01.568Z,20.45
2023-05-10T10:14:29.924Z,20.03
2023-05-10T10:17:07.703Z,20.18
2023-05-10T10:19:36.864Z,20.03
2023-05-10T10:22:05.247Z,20.19
2023-05-10T10:24:32.944Z,20.17
2023-05-10T10:27:45.387Z,20.27
2023-05-10T10:30:31.628Z,19.76
2023-05-10T10:33:29.656Z,19.66
2023-05-10T10:36:00.241Z,20.08
2023-05-10T10:39:00.455Z,19.65
2023-05-10T10:41:37.151Z,19.57
2023-05-10T10:44:23.318Z,19.36
2023-05-10T10:47:30.837Z,19.42
2023-05-10T10:50:01.677Z,19.17
2023-05-10T10:52:34.406Z,19.41
2023-05-10T10:55:05.132Z,19.85
2023-05-10T10:57:43.621Z,19.77
2023-05-10T11:03:10.219Z,20.30
2023-05-10T11:05:50.426Z,20.20
2023-05-10T11:08:27.136Z,20.12
2023-05-10T11:11:00.868Z,20.60
2023-05-10T11:13:33.819Z,20.43
2023-05-10T11:16:12.343Z,20.80
2023-05-10T11:18:40.270Z,20.60
2023-05-10T11:21:11.723Z,20.99
2023-05-10T11:23:48.488Z,20.39
2023-05-10T11:26:16.438Z,20.14
2023-05-10T11:28:44.946Z,20.25
2023-05-10T11:31:17.982Z,20.15
2023-05-10T11:33:53.727Z,20.50
2023-05-10T11:36:26.226Z,20.71
2023-05-10T11:38:54.622Z,20.32
2023-05-10T11:41:23.467Z,19.84
2023-05-10T11:43:52.329Z,19.89
2023-05-10T11:46:25.464Z,20.15
2023-05-10T11:48:55.078Z,20.11
2023-05-10T11:51:24.313Z,19.99
2023-05-10T11:53:56.760Z,20.12
2023-05-10T11:56:24.782Z,19.86
2023-05-10T11:58:57.844Z,19.99
2023-05-10T12:01:27.299Z,20.10
2023-05-10T12:04:00.020Z,19.98
2023-05-10T12:06:29.900Z,19.73
2023-05-10T12:08:57.866Z,19.89
2023-05-10T12:11:26.828Z,19.86
2023-05-10T12:13:55.014Z,19.99
2023-05-10T12:16:24.776Z,19.94
2023-05-10T12:18:53.437Z,20.19
2023-05-10T12:21:22.143Z,20.19
2023-05-10T12:23:52.284Z,19.97
2023-05-10T12:26:22.329Z,19.72
2023-05-10T12:28:49.956Z,19.91
2023-05-10T12:31:17.432Z,20.15
2023-05-10T12:33:45.628Z,20.15
2023-05-10T12:36:15.396Z,19.97
2023-05-10T12:38:44.671Z,19.91
2023-05-10T12:41:13.570Z,19.88
2023-05-10T12:43:41.769Z,19.74
2023-05-10T12:46:10.476Z,19.66
2023-05-10T12:48:38.954Z,19.94
2023-05-10T12:51:09.702Z,19.97
2023-05-10T12:53:37.683Z,20.27
2023-05-10T12:56:05.485Z,20.11
2023-05-10T12:58:36.011Z,20.18
2023-05-10T13:01:04.212Z,20.14
2023-05-10T13:03:31.659Z,20.25
2023-05-10T13:05:59.316Z,20.33
2023-05-10T13:08:26.935Z,20.53
2023-05-10T13:10:54.270Z,20.24
2023-05-10T13:13:21.899Z,20.17
2023-05-10T13:15:49.263Z,19.67
2023-05-10T13:18:16.816Z,20.21
2023-05-10T13:20:45.292Z,20.20
2023-05-10T13:23:12.691Z,20.44
2023-05-10T13:25:40.235Z,20.54
2023-05-10T13:28:07.998Z,20.28
2023-05-10T13:30:35.313Z,20.45
2023-05-10T13:33:02.818Z,20.31
2023-05-10T13:35:30.827Z,20.04
2023-05-10T13:37:58.647Z,19.72
2023-05-10T13:40:26.071Z,19.88
2023-05-10T13:42:54.006Z,20.23
2023-05-10T13:45:21.845Z,20.15
2023-05-10T13:47:49.257Z,20.66
2023-05-10T13:50:17.879Z,20.09
2023-05-10T13:52:45.456Z,20.32
2023-05-10T13:56:10.305Z,20.14
2023-05-10T13:58:58.088Z,20.47
2023-05-10T14:01:25.804Z,21.00
2023-05-10T14:03:53.580Z,20.90
2023-05-10T14:06:21.418Z,20.77
2023-05-10T14:08:49.070Z,19.86
2023-05-10T14:11:16.726Z,20.15
2023-05-10T14:13:44.087Z,20.55
2023-05-10T14:16:11.695Z,21.02
2023-05-10T14:18:39.370Z,20.81
2023-05-10T14:21:07.172Z,20.90
2023-05-10T14:23:34.523Z,21.03
2023-05-10T14:26:02.421Z,21.06
2023-05-10T14:28:30.244Z,20.97
2023-05-10T14:30:58.129Z,21.13
2023-05-10T14:33:26.041Z,21.57
2023-05-10T14:35:53.418Z,21.38
2023-05-10T14:38:20.905Z,21.46
2023-05-10T14:40:48.553Z,21.33
2023-05-10T14:43:16.029Z,21.38
2023-05-10T14:45:43.430Z,21.22
2023-05-10T14:48:16.195Z,21.59
2023-05-10T14:50:43.579Z,21.80
2023-05-10T14:53:36.199Z,21.45
2023-05-10T14:56:03.985Z,21.26
2023-05-10T14:58:33.993Z,21.56
2023-05-10T15:01:01.821Z,21.61
2023-05-10T15:03:29.961Z,21.49
2023-05-10T15:05:58.902Z,20.96
2023-05-10T15:08:26.351Z,20.90
2023-05-10T15:10:56.377Z,21.06
2023-05-10T15:13:24.056Z,21.52
2023-05-10T15:15:51.588Z,20.59
2023-05-10T15:18:19.089Z,21.29
2023-05-10T15:20:46.690Z,21.05
2023-05-10T15:23:14.237Z,20.66
2023-05-10T15:25:41.756Z,20.92
2023-05-10T15:28:09.386Z,20.91
2023-05-10T15:30:36.797Z,21.00
2023-05-10T15:33:04.234Z,21.14
2023-05-10T15:35:32.632Z,20.64
2023-05-10T15:37:59.960Z,20.66
2023-05-10T15:40:27.373Z,20.20
2023-05-10T15:42:55.136Z,20.39
2023-05-10T15:45:22.718Z,20.10
2023-05-10T15:47:50.169Z,20.16
2023-05-10T15:50:17.882Z,20.39
2023-05-10T15:52:45.345Z,20.55
2023-05-10T15:55:13.450Z,20.76
2023-05-10T15:57:42.560Z,20.42
2023-05-10T16:00:11.309Z,20.48
2023-05-10T16:02:40.703Z,20.51
2023-05-10T16:05:09.708Z,20.50
2023-05-10T16:07:37.162Z,20.62
2023-05-10T16:10:06.592Z,19.93
2023-05-10T16:12:34.676Z,20.32
2023-05-10T16:15:02.124Z,20.33
2023-05-10T16:17:29.593Z,20.20
2023-05-10T16:19:57.379Z,19.86
2023-05-10T16:22:27.315Z,20.27
2023-05-10T16:24:54.778Z,20.27
2023-05-10T16:27:22.508Z,20.30
2023-05-10T16:29:50.065Z,20.36
2023-05-10T16:32:17.552Z,20.69
2023-05-10T16:34:45.527Z,20.53
2023-05-10T16:37:12.988Z,20.44
2023-05-10T16:39:40.462Z,20.35
2023-05-10T16:42:08.172Z,20.29
2023-05-10T16:44:36.472Z,20.20
2023-05-10T16:47:03.942Z,20.07
2023-05-10T16:49:31.664Z,20.07
2023-05-10T16:51:59.923Z,20.17
2023-05-10T16:54:28.814Z,20.25
2023-05-10T16:56:56.472Z,19.89
2023-05-10T16:59:23.922Z,20.07
2023-05-10T17:01:53.192Z,20.11
2023-05-10T17:04:21.142Z,20.35
2023-05-10T17:06:48.563Z,20.40
2023-05-10T17:09:15.969Z,20.22
2023-05-10T17:11:43.702Z,20.28
2023-05-10T17:14:11.382Z,20.13
2023-05-10T17:16:39.010Z,20.07
2023-05-10T17:19:06.966Z,20.03
2023-05-10T17:21:34.544Z,19.91
2023-05-10T17:24:02.035Z,20.05
2023-05-10T17:26:30.146Z,19.97
2023-05-10T17:28:58.619Z,20.10
2023-05-10T17:31:26.063Z,19.76
2023-05-10T17:33:53.811Z,19.49
2023-05-10T17:36:21.218Z,19.72
2023-05-10T17:38:49.011Z,19.92
2023-05-10T17:41:17.170Z,19.62
2023-05-10T17:43:44.750Z,19.77
2023-05-10T17:46:12.977Z,19.74
2023-05-10T17:48:41.865Z,19.98
2023-05-10T17:51:09.555Z,19.51
2023-05-10T17:53:36.904Z,19.99
2023-05-10T17:56:04.748Z,19.62
2023-05-10T17:58:32.161Z,19.63
2023-05-10T18:00:59.557Z,19.62
2023-05-10T18:03:27.225Z,19.49
2023-05-10T18:05:55.352Z,19.17
2023-05-10T18:08:26.728Z,19.46
2023-05-10T18:10:54.430Z,19.70
2023-05-10T18:13:22.294Z,19.41
2023-05-10T18:15:49.893Z,19.20
2023-05-10T18:18:17.754Z,19.49
2023-05-10T18:20:46.379Z,19.44
2023-05-10T18:23:15.337Z,19.57
2023-05-10T18:25:43.164Z,19.79
2023-05-10T18:28:10.755Z,19.60
2023-05-10T18:30:38.453Z,19.34
2023-05-10T18:33:06.750Z,19.29
2023-05-10T18:35:36.801Z,19.37
2023-05-10T18:38:04.464Z,19.28
2023-05-10T18:40:32.359Z,19.12
2023-05-10T18:43:00.123Z,19.11
2023-05-10T18:45:27.509Z,19.14
2023-05-10T18:47:55.533Z,18.84
2023-05-10T18:50:22.997Z,18.97
2023-05-10T18:52:50.689Z,18.95
2023-05-10T18:55:18.723Z,18.96
2023-05-10T18:57:46.726Z,19.06
2023-05-10T19:00:14.341Z,19.00
2023-05-10T19:02:42.103Z,19.00
2023-05-10T19:05:09.932Z,18.90
2023-05-10T19:07:37.531Z,18.86
2023-05-10T19:10:05.799Z,18.88
2023-05-10T19:12:33.402Z,18.91
2023-05-10T19:15:01.163Z,18.79
2023-05-10T19:17:29.029Z,18.76
2023-05-10T19:19:57.657Z,18.68
2023-05-10T19:22:35.300Z,18.97
2023-05-10T19:25:05.879Z,19.01
2023-05-10T19:27:34.114Z,18.81
2023-05-10T19:30:01.746Z,18.97
2023-05-10T19:32:30.048Z,18.92
2023-05-10T19:34:57.645Z,18.79
2023-05-10T19:37:25.632Z,18.84
2023-05-10T19:39:53.428Z,18.50
2023-05-10T19:42:21.179Z,18.60
2023-05-10T19:44:48.893Z,18.79
2023-05-10T19:47:16.995Z,18.76
2023-05-10T19:49:44.688Z,18.73
2023-05-10T19:52:12.450Z,18.76
2023-05-10T19:54:40.164Z,18.88
2023-05-10T19:57:07.745Z,19.08
2023-05-10T19:59:35.473Z,18.95
2023-05-10T20:02:03.190Z,18.94
2023-05-10T20:04:31.389Z,18.95
2023-05-10T20:06:58.942Z,18.98
2023-05-10T20:09:26.722Z,19.05
2023-05-10T20:11:54.461Z,18.87
2023-05-10T20:14:22.344Z,18.87
2023-05-10T20:16:49.919Z,18.98
2023-05-10T20:19:17.935Z,19.07
2023-05-10T20:21:45.392Z,19.20
2023-05-10T20:24:12.966Z,19.35
2023-05-10T20:26:41.035Z,19.29
2023-05-10T20:29:09.404Z,19.39
2023-05-10T20:31:37.165Z,19.54
2023-05-10T20:34:04.887Z,19.49
2023-05-10T20:36:32.607Z,19.51
2023-05-10T20:39:00.055Z,19.45
2023-05-10T20:41:27.978Z,19.30
2023-05-10T20:43:55.401Z,19.30
2023-05-10T20:46:23.614Z,19.29
2023-05-10T20:48:51.376Z,19.21
2023-05-10T20:51:18.848Z,19.16
2023-05-10T20:53:46.220Z,19.27
2023-05-10T20:56:13.905Z,19.09
2023-05-10T20:58:41.314Z,19.07
2023-05-10T21:01:08.893Z,19.02
2023-05-10T21:03:36.604Z,18.91
2023-05-10T21:06:04.050Z,18.88
2023-05-10T21:08:31.448Z,18.97
2023-05-10T21:10:59.358Z,18.74
2023-05-10T21:13:26.775Z,18.91
2023-05-10T21:15:54.239Z,18.83
2023-05-10T21:18:22.205Z,18.86
2023-05-10T21:20:49.753Z,18.89
2023-05-10T21:23:17.325Z,18.87
2023-05-10T21:25:44.989Z,18.90
2023-05-10T21:28:12.365Z,18.99
2023-05-10T21:30:39.756Z,19.00
2023-05-10T21:33:07.532Z,19.04
2023-05-10T21:35:34.924Z,19.14
2023-05-10T21:38:02.354Z,19.19
2023-05-10T21:40:30.047Z,19.18
2023-05-10T21:42:57.832Z,19.18
2023-05-10T21:45:25.323Z,19.14
2023-05-10T21:47:53.013Z,19.22
2023-05-10T21:50:20.532Z,19.23
2023-05-10T21:52:48.163Z,19.26
2023-05-10T21:55:16.040Z,19.22
2023-05-10T21:57:44.809Z,19.24
2023-05-10T22:00:13.575Z,19.04
2023-05-10T22:02:41.265Z,19.11
2023-05-10T22:05:09.114Z,19.01
2023-05-10T22:07:36.634Z,19.13
2023-05-10T22:10:04.552Z,19.18
2023-05-10T22:12:31.920Z,19.02
2023-05-10T22:15:09.500Z,19.13
2023-05-10T22:17:39.917Z,19.16
2023-05-10T22:20:08.960Z,19.23
2023-05-10T22:22:36.820Z,19.19
2023-05-10T22:25:08.618Z,19.19
2023-05-10T22:27:36.010Z,19.28
2023-05-10T22:30:04.100Z,18.73
2023-05-10T22:32:33.854Z,19.07
2023-05-10T22:35:01.241Z,19.21
2023-05-10T22:37:28.953Z,19.01
2023-05-10T22:39:56.634Z,19.09
2023-05-10T22:42:23.993Z,19.26
2023-05-10T22:44:51.411Z,18.88
2023-05-10T22:47:19.059Z,19.00
2023-05-10T22:49:47.048Z,18.78
2023-05-10T22:52:14.426Z,18.90
2023-05-10T22:54:42.039Z,18.71
2023-05-10T22:57:09.494Z,18.83
2023-05-10T22:59:36.915Z,18.83
2023-05-10T23:02:04.733Z,18.76
2023-05-10T23:04:32.628Z,18.61
2023-05-10T23:07:00.057Z,18.52
2023-05-10T23:09:27.695Z,18.74
2023-05-10T23:11:55.096Z,18.77
2023-05-10T23:14:23.515Z,18.94
2023-05-10T23:16:51.214Z,18.96
2023-05-10T23:19:19.167Z,18.93
2023-05-10T23:21:47.158Z,19.05
2023-05-10T23:24:15.059Z,19.01
2023-05-10T23:26:45.193Z,19.12
2023-05-10T23:29:12.639Z,19.13
2023-05-10T23:31:45.453Z,19.11
2023-05-10T23:34:13.003Z,19.08
2023-05-10T23:36:40.901Z,19.13
2023-05-10T23:39:08.413Z,19.04
2023-05-10T23:41:35.799Z,19.12
2023-05-10T23:44:03.523Z,19.05
2023-05-10T23:46:30.923Z,18.88
2023-05-10T23:48:58.361Z,18.76
2023-05-10T23:51:26.103Z,18.75
2023-05-10T23:53:53.454Z,18.71
2023-05-10T23:56:22.128Z,18.91
2023-05-10T23:58:49.809Z,18.91
